Terminal Aerodrome Forecast
Issued by NWS Wilmington, NC

Home | Current Version | Previous Version | Text Only | Print | Product List | Glossary On
Versions: 1 2 3 4 5 6 7 8 9 10 11 12 13 14 15 16 17 18 19 20 21 22 23 24 25 26 27 28 29 30 31 32 33 34
529
FTUS42 KILM 231733
TAFILM
TAF
KILM 231733Z 2318/2418 24013KT P6SM VCSH SCT025 BKN150
      TEMPO 2318/2321 24015G25KT 3SM SHRA BKN025
     FM232300 28006KT P6SM BKN045
     FM240600 30012KT P6SM SCT015 BKN030
      TEMPO 2406/2409 P6SM SCT007 BKN015
     FM241100 29011KT P6SM SCT030 BKN100
     FM241500 30016KT P6SM SKC=

USA.gov is the U.S. government's official web portal to all federal, state and local government web resources and services.